Terminal Aerodrome Forecast
Issued by NWS Charleston, WV

Current Version | Previous Version | Graphics & Text | Print | Product List | Glossary On
Versions: 1 2 3 4 5 6 7 8 9 10 11 12 13 14 15 16 17 18 19 20 21 22 23 24 25 26
000
FTUS41 KRLX 030227 AAA
TAFCRW
TAF AMD
KCRW 030227Z 0302/0324 00000KT 6SM HZ SCT080
     FM030600 00000KT 4SM BR SCT050
     FM030800 00000KT 2SM BR SCT002
     FM031300 00000KT 6SM HZ SCT035
     FM031500 00000KT P6SM BKN035
     FM031700 VRB03KT P6SM VCTS BKN035CB
     FM032300 00000KT P6SM VCTS SCT040CB=

USA.gov is the U.S. government's official web portal to all federal, state and local government web resources and services.